Terminal Aerodrome Forecast
Issued by NWS Northern Indiana

Home | Current Version | Previous Version | Graphics & Text | Print | Product List | Glossary On
Versions: 1 2 3 4 5 6 7 8 9 10 11 12 13 14 15 16
000
FTUS43 KIWX 272339
TAFFWA
TAF
KFWA 272339Z 2800/2824 01006KT P6SM SCT100
     FM280200 03005KT P6SM BKN060
     FM281200 03008KT P6SM SCT100
     FM281800 03012G17KT P6SM BKN040=

USA.gov is the U.S. government's official web portal to all federal, state and local government web resources and services.